createdAt,value
2023-03-29T06:10:18.898Z,5.57
2023-03-29T06:12:54.684Z,6.22
2023-03-29T06:15:26.468Z,6.88
2023-03-29T06:18:19.467Z,5.90
2023-03-29T06:20:50.419Z,6.25
2023-03-29T06:23:24.374Z,7.60
2023-03-29T06:25:52.003Z,7.25
2023-03-29T06:28:21.363Z,8.52
2023-03-29T06:30:55.117Z,6.63
2023-03-29T06:33:34.476Z,8.30
2023-03-29T06:36:19.535Z,6.70
2023-03-29T06:38:51.671Z,7.05
2023-03-29T06:41:36.915Z,6.82
2023-03-29T06:44:28.489Z,8.02
2023-03-29T06:47:04.424Z,7.00
2023-03-29T06:49:35.563Z,6.15
2023-03-29T06:52:27.253Z,8.02
2023-03-29T06:55:03.416Z,6.13
2023-03-29T06:57:36.196Z,6.25
2023-03-29T07:00:31.128Z,5.75
2023-03-29T07:03:25.615Z,5.97
2023-03-29T07:06:04.688Z,5.85
2023-03-29T07:08:47.046Z,6.25
2023-03-29T07:11:31.687Z,6.22
2023-03-29T07:14:08.187Z,6.35
2023-03-29T07:16:37.841Z,6.30
2023-03-29T07:19:16.626Z,7.95
2023-03-29T07:21:57.104Z,10.35
2023-03-29T07:24:37.648Z,7.15
2023-03-29T07:27:05.302Z,6.00
2023-03-29T07:29:34.222Z,6.15
2023-03-29T07:32:01.754Z,5.55
2023-03-29T07:34:44.449Z,6.25
2023-03-29T07:37:24.784Z,4.47
2023-03-29T07:39:54.085Z,10.70
2023-03-29T07:42:44.290Z,5.43
2023-03-29T07:45:17.137Z,10.82
2023-03-29T07:47:59.813Z,4.57
2023-03-29T07:50:33.636Z,21.25
2023-03-29T07:53:05.286Z,5.00
2023-03-29T07:55:36.700Z,4.80
2023-03-29T07:58:27.581Z,5.22
2023-03-29T08:00:55.141Z,5.57
2023-03-29T08:03:46.687Z,5.70
2023-03-29T08:06:16.232Z,6.38
2023-03-29T08:08:44.206Z,8.73
2023-03-29T08:11:15.439Z,4.90
2023-03-29T08:13:59.102Z,5.47
2023-03-29T08:16:27.183Z,5.65
2023-03-29T08:19:09.105Z,5.60
2023-03-29T08:22:02.244Z,6.38
2023-03-29T08:24:39.980Z,6.05
2023-03-29T08:27:08.369Z,5.10
2023-03-29T08:29:36.398Z,4.38
2023-03-29T08:32:05.552Z,5.13
2023-03-29T08:34:35.576Z,8.85
2023-03-29T08:37:17.786Z,6.80
2023-03-29T08:39:48.632Z,5.43
2023-03-29T08:43:04.935Z,6.38
2023-03-29T08:46:12.079Z,7.78
2023-03-29T08:48:44.741Z,6.60
2023-03-29T08:54:02.440Z,6.35
2023-03-29T08:56:46.995Z,5.53
2023-03-29T08:59:29.516Z,4.85
2023-03-29T09:01:59.400Z,5.78
2023-03-29T09:04:35.099Z,4.70
2023-03-29T09:07:11.596Z,6.13
2023-03-29T09:09:43.647Z,5.57
2023-03-29T09:12:44.244Z,6.55
2023-03-29T09:15:22.299Z,6.30
2023-03-29T09:18:37.807Z,5.53
2023-03-29T09:21:22.555Z,5.78
2023-03-29T09:24:15.871Z,5.93
2023-03-29T09:27:11.140Z,5.57
2023-03-29T09:30:14.740Z,5.15
2023-03-29T09:32:53.275Z,6.32
2023-03-29T09:35:38.362Z,5.47
2023-03-29T09:38:12.607Z,4.57
2023-03-29T09:40:46.874Z,5.35
2023-03-29T09:43:37.997Z,5.80
2023-03-29T09:46:24.391Z,4.75
2023-03-29T09:48:54.827Z,5.70
2023-03-29T09:51:27.263Z,5.15
2023-03-29T09:54:00.241Z,5.22
2023-03-29T09:56:46.237Z,5.88
2023-03-29T09:59:17.331Z,5.65
2023-03-29T10:01:45.992Z,6.18
2023-03-29T10:04:16.943Z,4.72
2023-03-29T10:06:52.835Z,8.82
2023-03-29T10:09:23.396Z,11.88
2023-03-29T10:11:58.594Z,14.38
2023-03-29T10:14:31.975Z,8.05
2023-03-29T10:16:59.830Z,6.05
2023-03-29T10:19:34.962Z,6.03
2023-03-29T10:22:14.394Z,6.05
2023-03-29T10:24:49.382Z,5.82
2023-03-29T10:27:23.382Z,5.53
2023-03-29T10:29:52.148Z,6.03
2023-03-29T10:32:37.886Z,5.88
2023-03-29T10:35:29.450Z,6.30
2023-03-29T10:38:01.602Z,5.80
2023-03-29T10:40:41.915Z,5.45
2023-03-29T10:43:35.087Z,5.70
2023-03-29T10:46:19.695Z,5.90
2023-03-29T10:48:55.906Z,10.35
2023-03-29T10:51:25.460Z,8.50
2023-03-29T10:53:53.434Z,6.70
2023-03-29T10:56:39.175Z,14.45
2023-03-29T10:59:17.105Z,7.00
2023-03-29T11:02:25.311Z,9.25
2023-03-29T11:05:06.137Z,7.32
2023-03-29T11:08:18.328Z,6.72
2023-03-29T11:10:50.520Z,6.32
2023-03-29T11:13:23.716Z,8.23
2023-03-29T11:16:05.407Z,9.45
2023-03-29T11:19:16.291Z,8.55
2023-03-29T11:22:13.012Z,5.97
2023-03-29T11:25:02.801Z,4.85
2023-03-29T11:27:57.845Z,4.75
2023-03-29T11:30:38.472Z,17.63
2023-03-29T11:33:37.631Z,6.82
2023-03-29T11:36:11.936Z,5.50
2023-03-29T11:41:23.506Z,5.85
2023-03-29T11:44:08.770Z,5.13
2023-03-29T11:46:43.733Z,4.82
2023-03-29T11:49:21.553Z,5.32
2023-03-29T11:51:58.395Z,5.32
2023-03-29T11:54:41.274Z,7.55
2023-03-29T11:57:15.018Z,5.68
2023-03-29T11:59:57.106Z,5.15
2023-03-29T12:02:53.915Z,6.00
2023-03-29T12:05:28.182Z,5.05
2023-03-29T12:07:58.980Z,6.38
2023-03-29T12:10:37.769Z,6.43
2023-03-29T12:13:29.412Z,7.43
2023-03-29T12:16:26.439Z,6.78
2023-03-29T12:19:01.542Z,5.57
2023-03-29T12:21:31.195Z,6.40
2023-03-29T12:23:59.471Z,6.25
2023-03-29T12:26:47.460Z,5.40
2023-03-29T12:29:43.842Z,6.30
2023-03-29T12:32:41.816Z,6.22
2023-03-29T12:36:06.071Z,5.57
2023-03-29T12:38:52.858Z,5.65
2023-03-29T12:41:41.823Z,5.20
2023-03-29T12:44:28.316Z,6.00
2023-03-29T12:47:02.203Z,5.47
2023-03-29T12:49:34.365Z,5.85
2023-03-29T12:52:07.211Z,6.30
2023-03-29T12:54:34.823Z,6.35
2023-03-29T12:57:21.916Z,6.10
2023-03-29T12:59:49.927Z,6.03
2023-03-29T13:02:18.199Z,5.45
2023-03-29T13:04:57.359Z,5.40
2023-03-29T13:07:26.512Z,6.82
2023-03-29T13:09:58.263Z,8.27
2023-03-29T13:12:46.209Z,7.28
2023-03-29T13:15:17.047Z,7.97
2023-03-29T13:18:20.580Z,6.57
2023-03-29T13:21:07.819Z,7.55
2023-03-29T13:23:57.218Z,7.30
2023-03-29T13:26:37.492Z,8.27
2023-03-29T13:29:16.926Z,9.45
2023-03-29T13:31:52.356Z,7.43
2023-03-29T13:35:07.022Z,7.40
2023-03-29T13:37:57.507Z,7.78
2023-03-29T13:40:47.983Z,6.25
2023-03-29T13:43:30.884Z,6.18
2023-03-29T13:45:58.089Z,6.72
2023-03-29T13:49:01.677Z,6.03
2023-03-29T13:51:37.062Z,7.25
2023-03-29T13:54:43.106Z,6.45
2023-03-29T13:59:49.847Z,5.97
2023-03-29T14:02:32.971Z,6.35
2023-03-29T14:05:04.272Z,6.85
2023-03-29T14:07:34.349Z,6.63
2023-03-29T14:10:02.875Z,6.25
2023-03-29T14:12:35.631Z,6.43
2023-03-29T14:15:06.358Z,6.10
2023-03-29T14:17:36.591Z,6.75
2023-03-29T14:20:09.812Z,6.40
2023-03-29T14:22:37.960Z,7.05
2023-03-29T14:25:15.657Z,5.60
2023-03-29T14:27:43.191Z,8.07
2023-03-29T14:30:28.992Z,8.75
2023-03-29T14:32:56.893Z,7.55
2023-03-29T14:35:31.631Z,6.03
2023-03-29T14:37:59.980Z,8.18
2023-03-29T14:40:27.978Z,8.45
2023-03-29T14:42:55.733Z,8.98
2023-03-29T14:45:27.647Z,7.22
2023-03-29T14:48:14.332Z,6.82
2023-03-29T14:50:53.735Z,6.95
2023-03-29T14:54:02.313Z,8.68
2023-03-29T14:57:27.404Z,37.85
2023-03-29T15:00:24.836Z,7.03
2023-03-29T15:03:03.156Z,6.97
2023-03-29T15:06:06.268Z,10.50
2023-03-29T15:09:01.501Z,11.80
2023-03-29T15:11:34.036Z,10.68
2023-03-29T15:14:18.401Z,8.63
2023-03-29T15:16:56.212Z,8.63
2023-03-29T15:19:29.385Z,5.50
2023-03-29T15:22:27.740Z,8.48
2023-03-29T15:25:33.095Z,9.50
2023-03-29T15:28:03.290Z,9.00
2023-03-29T15:31:00.758Z,11.45
2023-03-29T15:34:13.388Z,7.57
2023-03-29T15:36:47.653Z,29.75
2023-03-29T15:39:29.884Z,7.53
2023-03-29T15:41:59.607Z,10.45
2023-03-29T15:44:39.538Z,10.25
2023-03-29T15:47:41.451Z,14.10
2023-03-29T15:50:21.373Z,12.38
2023-03-29T15:53:14.259Z,8.70
2023-03-29T15:56:02.415Z,8.90
2023-03-29T15:58:50.703Z,6.65
2023-03-29T16:01:41.963Z,7.65
2023-03-29T16:04:23.839Z,8.02
2023-03-29T16:07:01.482Z,8.32
2023-03-29T16:09:29.679Z,6.97
2023-03-29T16:12:23.867Z,8.43
2023-03-29T16:14:57.240Z,9.35
2023-03-29T16:17:37.086Z,7.10
2023-03-29T16:20:21.707Z,8.10
2023-03-29T16:23:07.323Z,8.07
2023-03-29T16:25:37.645Z,8.68
2023-03-29T16:28:18.919Z,17.17
2023-03-29T16:30:55.204Z,13.15
2023-03-29T16:33:36.901Z,9.60
2023-03-29T16:36:08.244Z,10.77
2023-03-29T16:38:43.752Z,9.63
2023-03-29T16:41:22.454Z,12.70
2023-03-29T16:44:06.460Z,11.80
2023-03-29T16:46:39.330Z,13.73
2023-03-29T16:49:36.764Z,10.55
2023-03-29T16:52:06.741Z,9.27
2023-03-29T16:54:33.966Z,10.27
2023-03-29T16:57:07.243Z,8.88
2023-03-29T16:59:36.422Z,11.13
2023-03-29T17:02:05.089Z,9.57
2023-03-29T17:04:40.060Z,13.98
2023-03-29T17:07:14.162Z,21.38
2023-03-29T17:10:08.391Z,18.38
2023-03-29T17:12:40.229Z,10.57
2023-03-29T17:15:12.153Z,12.32
2023-03-29T17:17:42.408Z,19.08
2023-03-29T17:20:12.714Z,23.30
2023-03-29T17:22:42.146Z,29.73
2023-03-29T17:25:10.135Z,12.23
2023-03-29T17:27:41.871Z,11.82
2023-03-29T17:30:12.322Z,12.55
2023-03-29T17:32:45.893Z,28.30
2023-03-29T17:35:15.480Z,21.75
2023-03-29T17:37:46.342Z,15.77
2023-03-29T17:40:14.483Z,27.90
2023-03-29T17:42:50.317Z,21.75
2023-03-29T17:48:06.589Z,18.48
2023-03-29T17:50:37.850Z,18.25
2023-03-29T17:53:14.118Z,29.05
2023-03-29T17:55:45.064Z,25.05
2023-03-29T17:58:18.990Z,26.95
2023-03-29T18:00:49.867Z,43.40
2023-03-29T18:03:17.562Z,29.85
2023-03-29T18:06:14.537Z,19.92
2023-03-29T18:09:05.776Z,26.67
2023-03-29T18:11:59.376Z,20.13
2023-03-29T18:14:43.416Z,30.23
2023-03-29T18:17:15.416Z,21.67
2023-03-29T18:19:51.608Z,17.85
2023-03-29T18:22:24.249Z,25.45
2023-03-29T18:24:59.745Z,35.63
2023-03-29T18:28:04.229Z,31.55
2023-03-29T18:30:56.343Z,26.42
2023-03-29T18:33:23.983Z,25.50
2023-03-29T18:35:53.886Z,27.13
2023-03-29T18:38:43.820Z,36.78
2023-03-29T18:41:37.441Z,18.35
2023-03-29T18:44:14.185Z,17.83
2023-03-29T18:46:55.029Z,17.23
2023-03-29T18:50:02.799Z,14.88
2023-03-29T18:52:55.658Z,20.27
2023-03-29T18:55:25.591Z,15.25
2023-03-29T18:58:20.448Z,13.95
2023-03-29T19:01:16.836Z,12.93
2023-03-29T19:04:03.686Z,15.35
2023-03-29T19:08:07.176Z,15.85
2023-03-29T19:11:06.241Z,17.30
2023-03-29T19:13:40.402Z,18.33
2023-03-29T19:16:13.974Z,24.98
2023-03-29T19:19:08.070Z,20.52
2023-03-29T19:21:50.087Z,28.65
2023-03-29T19:25:36.380Z,29.95
2023-03-29T19:28:05.654Z,23.27
2023-03-29T19:31:15.954Z,24.42
2023-03-29T19:33:49.696Z,19.92
2023-03-29T19:36:18.748Z,18.70
2023-03-29T19:38:50.209Z,20.27
2023-03-29T19:41:18.697Z,24.75
2023-03-29T19:44:21.929Z,40.10
2023-03-29T19:47:20.951Z,42.70
2023-03-29T19:49:51.708Z,43.22
2023-03-29T19:52:46.032Z,42.33
2023-03-29T19:55:45.688Z,43.95
2023-03-29T19:58:14.805Z,39.40
2023-03-29T20:00:47.175Z,38.67
2023-03-29T20:06:45.234Z,38.95
2023-03-29T20:09:46.673Z,41.88
2023-03-29T20:12:20.773Z,33.20
2023-03-29T20:17:26.890Z,32.70
2023-03-29T20:19:55.630Z,34.30
2023-03-29T20:22:30.722Z,36.67
2023-03-29T20:24:59.694Z,39.00
2023-03-29T20:27:32.692Z,36.25
2023-03-29T20:30:52.173Z,31.15
2023-03-29T20:33:49.182Z,32.75
2023-03-29T20:36:23.268Z,33.90
2023-03-29T20:38:56.361Z,40.33
2023-03-29T20:41:27.859Z,31.73
2023-03-29T20:44:28.513Z,36.13
2023-03-29T20:47:05.189Z,27.42
2023-03-29T20:49:55.497Z,31.20
2023-03-29T20:52:36.063Z,33.05
2023-03-29T20:55:07.263Z,32.53
2023-03-29T20:57:38.484Z,33.78
2023-03-29T21:00:13.123Z,35.50
2023-03-29T21:06:44.335Z,33.40
2023-03-29T21:10:10.199Z,32.83
2023-03-29T21:13:09.575Z,30.50
2023-03-29T21:16:08.185Z,30.98
2023-03-29T21:19:02.452Z,47.53
2023-03-29T21:21:33.810Z,41.35
2023-03-29T21:24:05.910Z,32.13
2023-03-29T21:26:36.934Z,38.10
2023-03-29T21:29:11.344Z,35.75
2023-03-29T21:31:41.382Z,36.10
2023-03-29T21:34:16.005Z,31.70
2023-03-29T21:36:48.228Z,39.30
2023-03-29T21:39:42.497Z,43.65
2023-03-29T21:42:17.253Z,39.58
2023-03-29T21:44:49.126Z,35.92
2023-03-29T21:47:20.261Z,37.60
2023-03-29T21:49:48.418Z,38.80
2023-03-29T21:52:40.724Z,32.67
2023-03-29T21:55:37.584Z,32.70
2023-03-29T21:58:06.726Z,38.60
2023-03-29T22:00:38.804Z,34.63
2023-03-29T22:03:08.784Z,30.85
2023-03-29T22:05:46.623Z,29.33
2023-03-29T22:08:14.196Z,31.52
2023-03-29T22:10:45.558Z,33.88
2023-03-29T22:13:40.841Z,34.47
2023-03-29T22:16:15.172Z,30.70
2023-03-29T22:18:55.710Z,29.73
2023-03-29T22:21:41.060Z,33.00
2023-03-29T22:24:09.490Z,30.90
2023-03-29T22:26:38.127Z,27.92
2023-03-29T22:29:15.724Z,25.85
2023-03-29T22:31:43.326Z,22.23
2023-03-29T22:34:10.606Z,25.48
2023-03-29T22:36:40.418Z,26.40
2023-03-29T22:39:08.123Z,30.35
2023-03-29T22:41:36.219Z,32.38
2023-03-29T22:44:03.954Z,29.30
2023-03-29T22:46:32.292Z,25.88
2023-03-29T22:49:03.046Z,26.13
2023-03-29T22:51:30.760Z,25.13
2023-03-29T22:53:58.442Z,21.95
2023-03-29T22:56:27.323Z,23.15
2023-03-29T22:58:55.276Z,22.88
2023-03-29T23:01:27.428Z,22.05
2023-03-29T23:04:21.173Z,20.88
2023-03-29T23:06:48.714Z,20.92
2023-03-29T23:09:16.597Z,20.83
2023-03-29T23:11:44.348Z,20.25
2023-03-29T23:14:12.249Z,20.40
2023-03-29T23:16:40.240Z,21.88
2023-03-29T23:19:07.499Z,25.10
2023-03-29T23:21:36.187Z,22.33
2023-03-29T23:24:03.678Z,21.35
2023-03-29T23:26:31.222Z,18.42
2023-03-29T23:28:59.716Z,20.67
2023-03-29T23:31:27.672Z,19.67
2023-03-29T23:34:00.633Z,20.17
2023-03-29T23:36:31.613Z,22.77
2023-03-29T23:38:59.668Z,28.95
2023-03-29T23:41:29.195Z,19.52
2023-03-29T23:44:03.753Z,29.42
2023-03-29T23:46:40.556Z,21.40
2023-03-29T23:49:11.938Z,25.45
2023-03-29T23:52:14.850Z,22.67
2023-03-29T23:54:45.803Z,25.58
2023-03-29T23:57:17.875Z,21.10
2023-03-29T23:59:46.974Z,20.98
